createdAt,value
2022-08-23T00:00:13.724Z,55.20
2022-08-23T00:01:15.010Z,55.70
2022-08-23T00:02:23.705Z,56.20
2022-08-23T00:03:16.383Z,56.50
2022-08-23T00:04:18.170Z,57.00
2022-08-23T00:05:14.571Z,57.20
2022-08-23T00:06:13.851Z,57.10
2022-08-23T00:07:15.601Z,58.10
2022-08-23T00:08:16.171Z,57.90
2022-08-23T00:09:13.567Z,57.80
2022-08-23T00:10:15.532Z,57.90
2022-08-23T00:11:13.737Z,58.50
2022-08-23T00:12:13.543Z,59.00
2022-08-23T00:13:13.506Z,58.90
2022-08-23T00:14:16.396Z,59.10
2022-08-23T00:15:15.978Z,58.80
2022-08-23T00:16:14.535Z,59.20
2022-08-23T00:17:33.587Z,59.60
2022-08-23T00:18:14.770Z,59.30
2022-08-23T00:19:13.680Z,59.20
2022-08-23T00:20:14.716Z,59.00
2022-08-23T00:21:13.703Z,58.40
2022-08-23T00:22:13.599Z,58.30
2022-08-23T00:23:14.116Z,58.10
2022-08-23T00:24:13.010Z,57.90
2022-08-23T00:25:14.630Z,58.20
2022-08-23T00:26:14.357Z,58.00
2022-08-23T00:27:15.144Z,58.40
2022-08-23T00:28:14.738Z,58.50
2022-08-23T00:29:13.126Z,58.80
2022-08-23T00:30:13.098Z,59.00
2022-08-23T00:31:12.949Z,59.20
2022-08-23T00:32:12.869Z,59.50
2022-08-23T00:33:15.802Z,60.70
2022-08-23T00:34:15.535Z,59.70
2022-08-23T00:35:26.660Z,60.60
2022-08-23T00:36:14.944Z,60.50
2022-08-23T00:37:15.919Z,60.60
2022-08-23T00:38:34.487Z,60.40
2022-08-23T00:39:13.185Z,61.00
2022-08-23T00:40:13.491Z,60.60
2022-08-23T00:41:13.594Z,60.20
2022-08-23T00:42:13.430Z,60.30
2022-08-23T00:43:13.230Z,60.30
2022-08-23T00:44:15.360Z,60.50
2022-08-23T00:45:13.200Z,60.30
2022-08-23T00:46:15.506Z,60.80
2022-08-23T00:47:15.242Z,60.20
2022-08-23T00:48:13.303Z,60.30
2022-08-23T00:49:13.744Z,60.90
2022-08-23T00:50:23.357Z,60.80
2022-08-23T00:51:14.747Z,60.20
2022-08-23T00:52:13.934Z,60.40
2022-08-23T00:53:12.920Z,60.20
2022-08-23T00:54:15.693Z,60.60
2022-08-23T00:55:13.642Z,60.90
2022-08-23T00:56:16.553Z,61.70
2022-08-23T00:57:13.428Z,61.80
2022-08-23T00:58:13.419Z,62.00
2022-08-23T00:59:16.627Z,63.20
2022-08-23T01:00:13.502Z,62.40
2022-08-23T01:01:13.387Z,62.30
2022-08-23T01:02:13.531Z,62.50
2022-08-23T01:03:13.872Z,61.70
2022-08-23T01:04:18.179Z,61.10
2022-08-23T01:05:14.861Z,61.60
2022-08-23T01:06:15.382Z,62.30
2022-08-23T01:07:13.393Z,62.60
2022-08-23T01:08:14.697Z,61.90
2022-08-23T01:09:15.303Z,61.90
2022-08-23T01:10:13.283Z,61.90
2022-08-23T01:11:12.818Z,62.20
2022-08-23T01:12:14.176Z,61.80
2022-08-23T01:13:14.113Z,62.00
2022-08-23T01:14:13.010Z,62.70
2022-08-23T01:15:14.600Z,63.00
2022-08-23T01:16:13.550Z,63.50
2022-08-23T01:17:14.059Z,63.60
2022-08-23T01:18:13.014Z,63.00
2022-08-23T01:19:12.798Z,63.00
2022-08-23T01:20:13.695Z,63.30
2022-08-23T01:21:14.529Z,63.60
2022-08-23T01:22:13.298Z,63.20
2022-08-23T01:23:13.403Z,63.00
2022-08-23T01:24:19.088Z,62.70
2022-08-23T01:25:14.032Z,62.90
2022-08-23T01:26:13.016Z,63.10
2022-08-23T01:27:12.958Z,63.60
2022-08-23T01:28:14.375Z,64.10
2022-08-23T01:29:13.218Z,63.80
2022-08-23T01:30:13.044Z,63.50
2022-08-23T01:31:13.115Z,63.60
2022-08-23T01:32:13.641Z,63.90
2022-08-23T01:33:16.009Z,64.20
2022-08-23T01:34:14.455Z,64.10
2022-08-23T01:35:15.946Z,64.10
2022-08-23T01:36:13.028Z,63.70
2022-08-23T01:37:14.700Z,64.10
2022-08-23T01:38:14.112Z,63.70
2022-08-23T01:39:13.402Z,64.50
2022-08-23T01:40:13.623Z,64.10
2022-08-23T01:41:14.427Z,63.70
2022-08-23T01:42:14.629Z,63.90
2022-08-23T01:43:15.247Z,64.50
2022-08-23T01:44:13.316Z,64.90
2022-08-23T01:45:13.141Z,65.10
2022-08-23T01:46:14.820Z,65.00
2022-08-23T01:47:17.113Z,65.10
2022-08-23T01:48:13.280Z,65.50
2022-08-23T01:49:13.091Z,65.70
2022-08-23T01:50:13.216Z,66.10
2022-08-23T01:51:13.277Z,65.70
2022-08-23T01:52:13.125Z,65.70
2022-08-23T01:53:13.246Z,65.10
2022-08-23T01:54:14.109Z,65.40
2022-08-23T01:55:14.469Z,65.40
2022-08-23T01:56:16.258Z,65.60
2022-08-23T01:57:13.369Z,66.00
2022-08-23T01:58:13.354Z,65.70
2022-08-23T01:59:13.274Z,65.90
2022-08-23T02:00:13.604Z,65.50
2022-08-23T02:01:13.705Z,65.50
2022-08-23T02:02:15.366Z,64.20
2022-08-23T02:03:13.369Z,61.50
2022-08-23T02:04:13.416Z,61.70
2022-08-23T02:05:13.392Z,63.60
2022-08-23T02:06:13.066Z,62.30
2022-08-23T02:07:12.905Z,62.00
2022-08-23T02:08:13.947Z,61.40
2022-08-23T02:09:17.919Z,61.10
2022-08-23T02:10:13.223Z,61.60
2022-08-23T02:11:13.207Z,61.70
2022-08-23T02:12:13.107Z,62.00
2022-08-23T02:13:14.784Z,62.00
2022-08-23T02:14:15.178Z,62.60
2022-08-23T02:15:15.018Z,62.60
2022-08-23T02:16:15.038Z,62.70
2022-08-23T02:17:13.055Z,62.10
2022-08-23T02:18:13.500Z,62.90
2022-08-23T02:19:12.955Z,62.60
2022-08-23T02:20:14.305Z,62.30
2022-08-23T02:21:13.330Z,62.10
2022-08-23T02:22:13.479Z,62.10
2022-08-23T02:23:13.326Z,61.80
2022-08-23T02:24:13.518Z,62.20
2022-08-23T02:25:13.386Z,61.70
2022-08-23T02:26:13.672Z,61.20
2022-08-23T02:27:13.598Z,60.70
2022-08-23T02:28:13.675Z,61.20
2022-08-23T02:29:13.650Z,61.00
2022-08-23T02:30:13.472Z,60.60
2022-08-23T02:31:13.405Z,60.20
2022-08-23T02:32:13.100Z,59.60
2022-08-23T02:33:13.367Z,60.10
2022-08-23T02:34:13.400Z,60.40
2022-08-23T02:35:13.344Z,61.40
2022-08-23T02:36:13.248Z,62.60
2022-08-23T02:37:15.876Z,61.90
2022-08-23T02:38:14.021Z,62.00
2022-08-23T02:39:13.075Z,62.10
2022-08-23T02:40:14.904Z,62.60
2022-08-23T02:41:12.761Z,63.20
2022-08-23T02:42:13.737Z,62.90
2022-08-23T02:43:13.653Z,62.50
2022-08-23T02:44:14.591Z,61.90
2022-08-23T02:45:15.177Z,60.30
2022-08-23T02:46:13.154Z,61.50
2022-08-23T02:47:13.306Z,62.00
2022-08-23T02:48:14.776Z,61.90
2022-08-23T02:49:13.965Z,61.50
2022-08-23T02:50:12.997Z,58.90
2022-08-23T02:51:14.725Z,59.10
2022-08-23T02:52:13.994Z,59.80
2022-08-23T02:53:14.568Z,58.70
2022-08-23T02:54:13.726Z,59.80
2022-08-23T02:55:13.775Z,60.60
2022-08-23T02:56:21.564Z,60.80
2022-08-23T02:57:13.183Z,59.70
2022-08-23T02:58:13.078Z,60.40
2022-08-23T02:59:13.081Z,59.70
2022-08-23T03:00:13.461Z,60.30
2022-08-23T03:01:14.447Z,59.90
2022-08-23T03:02:15.179Z,60.70
2022-08-23T03:03:13.207Z,60.40
2022-08-23T03:04:14.866Z,60.60
2022-08-23T03:05:13.684Z,60.30
2022-08-23T03:06:25.407Z,61.00
2022-08-23T03:07:13.620Z,60.80
2022-08-23T03:08:15.135Z,61.50
2022-08-23T03:09:13.677Z,61.00
2022-08-23T03:10:13.645Z,60.80
2022-08-23T03:11:15.053Z,60.40
2022-08-23T03:12:13.156Z,59.70
2022-08-23T03:13:13.038Z,59.10
2022-08-23T03:14:12.958Z,59.50
2022-08-23T03:15:12.815Z,59.70
2022-08-23T03:16:13.721Z,59.10
2022-08-23T03:17:13.593Z,59.20
2022-08-23T03:18:13.484Z,60.40
2022-08-23T03:19:13.432Z,60.20
2022-08-23T03:20:13.308Z,60.20
2022-08-23T03:21:13.210Z,60.60
2022-08-23T03:22:13.818Z,61.10
2022-08-23T03:23:14.900Z,61.40
2022-08-23T03:24:13.742Z,59.50
2022-08-23T03:25:13.721Z,60.50
2022-08-23T03:26:13.413Z,60.80
2022-08-23T03:27:13.260Z,61.30
2022-08-23T03:28:13.186Z,61.20
2022-08-23T03:29:12.990Z,61.20
2022-08-23T03:30:17.755Z,61.10
2022-08-23T03:31:15.657Z,61.20
2022-08-23T03:32:15.430Z,61.60
2022-08-23T03:33:13.484Z,60.40
2022-08-23T03:34:13.359Z,59.90
2022-08-23T03:35:15.204Z,60.00
2022-08-23T03:36:13.346Z,60.60
2022-08-23T03:37:13.213Z,60.00
2022-08-23T03:38:13.055Z,60.20
2022-08-23T03:39:14.437Z,60.70
2022-08-23T03:40:13.424Z,60.40
2022-08-23T03:41:15.315Z,60.80
2022-08-23T03:42:13.249Z,61.70
2022-08-23T03:43:13.214Z,62.20
2022-08-23T03:44:13.080Z,62.10
2022-08-23T03:45:12.906Z,61.70
2022-08-23T03:46:12.831Z,62.00
2022-08-23T03:47:13.589Z,59.90
2022-08-23T03:48:14.984Z,60.50
2022-08-23T03:49:13.367Z,60.70
2022-08-23T03:50:13.278Z,60.90
2022-08-23T03:51:13.367Z,59.90
2022-08-23T03:52:13.222Z,60.00
2022-08-23T03:53:13.052Z,59.60
2022-08-23T03:54:12.890Z,59.80
2022-08-23T03:55:12.786Z,59.20
2022-08-23T03:56:15.289Z,59.60
2022-08-23T03:57:13.216Z,58.30
2022-08-23T03:58:13.289Z,57.00
2022-08-23T03:59:13.157Z,56.40
2022-08-23T04:00:13.319Z,56.80
2022-08-23T04:01:13.351Z,55.50
2022-08-23T04:02:19.575Z,55.00
2022-08-23T04:03:15.530Z,56.10
2022-08-23T04:04:13.663Z,55.00
2022-08-23T04:05:13.639Z,54.20
2022-08-23T04:06:13.626Z,54.70
2022-08-23T04:07:13.835Z,55.10
2022-08-23T04:08:13.779Z,55.30
2022-08-23T04:09:13.839Z,54.70
2022-08-23T04:10:13.715Z,54.70
2022-08-23T04:11:14.592Z,55.30
2022-08-23T04:12:17.762Z,55.30
2022-08-23T04:13:12.986Z,56.10
2022-08-23T04:14:12.815Z,56.30
2022-08-23T04:15:13.850Z,55.60
2022-08-23T04:16:13.848Z,55.40
2022-08-23T04:17:13.836Z,55.50
2022-08-23T04:18:14.013Z,55.90
2022-08-23T04:19:12.882Z,56.10
2022-08-23T04:20:13.651Z,56.10
2022-08-23T04:21:13.728Z,56.20
2022-08-23T04:22:13.834Z,55.90
2022-08-23T04:23:13.982Z,56.50
2022-08-23T04:24:12.843Z,57.10
2022-08-23T04:25:34.531Z,56.80
2022-08-23T04:26:13.459Z,56.90
2022-08-23T04:27:13.436Z,56.80
2022-08-23T04:28:16.906Z,56.30
2022-08-23T04:29:12.837Z,55.90
2022-08-23T04:30:13.531Z,55.00
2022-08-23T04:31:13.533Z,55.70
2022-08-23T04:32:13.431Z,54.30
2022-08-23T04:33:17.714Z,55.40
2022-08-23T04:34:15.500Z,55.30
2022-08-23T04:35:13.083Z,54.70
2022-08-23T04:36:13.109Z,55.60
2022-08-23T04:37:13.396Z,54.80
2022-08-23T04:38:24.201Z,54.30
2022-08-23T04:39:13.158Z,54.20
2022-08-23T04:40:13.365Z,53.40
2022-08-23T04:41:13.256Z,53.70
2022-08-23T04:42:14.908Z,53.40
2022-08-23T04:43:13.026Z,52.70
2022-08-23T04:44:13.182Z,52.60
2022-08-23T04:45:13.002Z,52.60
2022-08-23T04:46:14.364Z,52.20
2022-08-23T04:47:13.429Z,52.40
2022-08-23T04:48:14.846Z,53.10
2022-08-23T04:49:13.924Z,52.80
2022-08-23T04:50:12.775Z,53.10
2022-08-23T04:51:13.715Z,53.00
2022-08-23T04:52:18.614Z,52.70
2022-08-23T04:53:13.879Z,53.30
2022-08-23T04:54:14.055Z,52.70
2022-08-23T04:55:13.707Z,53.10
2022-08-23T04:56:13.991Z,52.80
2022-08-23T04:57:12.848Z,52.60
2022-08-23T04:58:15.518Z,53.50
2022-08-23T04:59:15.395Z,54.00
2022-08-23T05:00:13.325Z,54.80
2022-08-23T05:01:13.372Z,55.30
2022-08-23T05:02:19.960Z,55.50
2022-08-23T05:03:12.797Z,56.10
2022-08-23T05:04:13.595Z,56.90
2022-08-23T05:05:13.507Z,57.00
2022-08-23T05:06:13.567Z,57.60
2022-08-23T05:07:13.775Z,57.50
2022-08-23T05:08:13.563Z,57.50
2022-08-23T05:09:16.050Z,57.50
2022-08-23T05:10:13.793Z,58.40
2022-08-23T05:11:13.755Z,59.10
2022-08-23T05:12:13.675Z,59.20
2022-08-23T05:13:13.784Z,59.40
2022-08-23T05:14:13.942Z,59.90
2022-08-23T05:15:12.942Z,59.60
2022-08-23T05:16:13.251Z,59.60
2022-08-23T05:17:13.208Z,59.70
2022-08-23T05:18:13.527Z,60.00
2022-08-23T05:19:13.440Z,59.80
2022-08-23T05:20:13.360Z,59.40
2022-08-23T05:21:13.232Z,59.40
2022-08-23T05:22:14.714Z,59.90
2022-08-23T05:23:13.612Z,60.60
2022-08-23T05:24:14.065Z,60.60
2022-08-23T05:25:13.192Z,60.50
2022-08-23T05:26:14.634Z,60.00
2022-08-23T05:27:13.862Z,60.10
2022-08-23T05:28:12.789Z,60.80
2022-08-23T05:29:13.847Z,61.10
2022-08-23T05:30:15.485Z,61.70
2022-08-23T05:31:13.822Z,60.80
2022-08-23T05:32:13.806Z,59.60
2022-08-23T05:33:13.672Z,59.50
2022-08-23T05:34:13.482Z,59.50
2022-08-23T05:35:13.601Z,59.90
2022-08-23T05:36:13.160Z,59.80
2022-08-23T05:37:14.767Z,59.40
2022-08-23T05:38:16.673Z,59.50
2022-08-23T05:39:13.064Z,59.50
2022-08-23T05:40:13.272Z,58.90
2022-08-23T05:41:13.568Z,58.40
2022-08-23T05:42:13.657Z,59.40
2022-08-23T05:43:13.667Z,59.30
2022-08-23T05:44:13.762Z,59.40
2022-08-23T05:45:14.937Z,59.00
2022-08-23T05:46:13.393Z,59.10
2022-08-23T05:47:13.603Z,59.40
2022-08-23T05:48:14.878Z,59.40
2022-08-23T05:49:13.451Z,59.80
2022-08-23T05:50:13.995Z,59.00
2022-08-23T05:51:13.376Z,58.70
2022-08-23T05:52:13.544Z,58.20
2022-08-23T05:53:15.722Z,57.70
2022-08-23T05:54:15.019Z,57.50
2022-08-23T05:55:15.026Z,58.00
2022-08-23T05:56:12.910Z,56.80
2022-08-23T05:57:13.460Z,56.30
2022-08-23T05:58:13.412Z,55.80
2022-08-23T05:59:13.379Z,56.20
2022-08-23T06:00:14.526Z,56.20
2022-08-23T06:01:14.359Z,56.50
2022-08-23T06:02:13.622Z,56.50
2022-08-23T06:03:13.587Z,56.70
2022-08-23T06:04:15.085Z,53.20
2022-08-23T06:05:12.941Z,51.70
2022-08-23T06:06:12.911Z,53.50
2022-08-23T06:07:14.288Z,53.90
2022-08-23T06:08:13.110Z,55.10
2022-08-23T06:09:13.006Z,54.00
2022-08-23T06:10:15.999Z,53.80
2022-08-23T06:11:15.735Z,53.50
2022-08-23T06:12:13.528Z,51.70
2022-08-23T06:13:15.758Z,52.60
2022-08-23T06:14:15.268Z,53.50
2022-08-23T06:15:13.448Z,54.50
2022-08-23T06:16:18.752Z,54.30
2022-08-23T06:17:16.275Z,56.40
2022-08-23T06:18:13.500Z,56.00
2022-08-23T06:19:13.309Z,56.70
2022-08-23T06:20:13.332Z,58.20
2022-08-23T06:21:13.391Z,57.20
2022-08-23T06:22:13.402Z,57.40
2022-08-23T06:23:15.156Z,57.50
2022-08-23T06:24:14.735Z,57.90
2022-08-23T06:25:13.673Z,57.80
2022-08-23T06:26:15.064Z,58.00
2022-08-23T06:27:15.243Z,57.80
2022-08-23T06:28:15.122Z,58.10
2022-08-23T06:29:13.108Z,57.90
2022-08-23T06:30:16.245Z,59.00
2022-08-23T06:31:17.684Z,57.20
2022-08-23T06:32:17.601Z,55.60
2022-08-23T06:33:16.668Z,54.60
2022-08-23T06:34:17.203Z,53.60
2022-08-23T06:35:37.594Z,53.70
2022-08-23T06:36:17.881Z,55.10
2022-08-23T06:37:13.664Z,54.80
2022-08-23T06:38:13.582Z,54.90
2022-08-23T06:39:13.548Z,55.80
2022-08-23T06:40:18.343Z,54.70
2022-08-23T06:41:13.510Z,55.10
2022-08-23T06:42:38.270Z,55.10
2022-08-23T06:43:13.520Z,55.10
2022-08-23T06:44:16.254Z,53.50
2022-08-23T06:45:15.010Z,55.30
2022-08-23T06:46:13.134Z,50.90
2022-08-23T06:47:17.297Z,51.10
2022-08-23T06:48:18.730Z,50.70
2022-08-23T06:49:16.935Z,50.50
2022-08-23T06:50:14.455Z,49.40
2022-08-23T06:51:14.900Z,49.60
2022-08-23T06:52:13.114Z,52.00
2022-08-23T06:53:13.251Z,50.30
2022-08-23T06:54:15.048Z,50.60
2022-08-23T06:55:13.885Z,50.00
2022-08-23T06:56:14.582Z,52.80
2022-08-23T06:57:15.149Z,50.10
2022-08-23T06:58:15.298Z,48.60
2022-08-23T06:59:13.209Z,47.90
2022-08-23T07:00:17.802Z,45.90
2022-08-23T07:01:34.976Z,46.90
2022-08-23T07:02:13.584Z,46.10
2022-08-23T07:03:17.628Z,46.10
2022-08-23T07:04:15.253Z,45.70
2022-08-23T07:05:13.464Z,45.00
2022-08-23T07:06:15.319Z,45.30
2022-08-23T07:07:14.997Z,45.50
2022-08-23T07:08:16.319Z,45.30
2022-08-23T07:09:17.228Z,45.60
2022-08-23T07:10:13.113Z,45.50
2022-08-23T07:11:16.267Z,45.40
2022-08-23T07:12:13.556Z,44.50
2022-08-23T07:13:18.389Z,45.00
2022-08-23T07:14:18.355Z,45.20
2022-08-23T07:15:14.892Z,44.70
2022-08-23T07:16:16.176Z,45.70
2022-08-23T07:17:13.144Z,47.00
2022-08-23T07:18:13.543Z,46.10
2022-08-23T07:19:18.932Z,45.90
2022-08-23T07:20:16.044Z,50.20
2022-08-23T07:21:16.436Z,48.20
2022-08-23T07:22:15.601Z,47.80
2022-08-23T07:23:18.590Z,47.20
2022-08-23T07:24:18.458Z,45.70
2022-08-23T07:25:15.060Z,46.40
2022-08-23T07:26:19.138Z,47.80
2022-08-23T07:27:16.202Z,47.20
2022-08-23T07:28:15.234Z,46.30
2022-08-23T07:29:17.856Z,45.60
2022-08-23T07:30:17.660Z,44.20
2022-08-23T07:31:16.250Z,44.10
2022-08-23T07:32:13.160Z,44.70
2022-08-23T07:33:13.217Z,45.80
2022-08-23T07:34:15.516Z,44.50
2022-08-23T07:35:16.579Z,42.80
2022-08-23T07:36:18.356Z,43.20
2022-08-23T07:37:15.385Z,45.00
2022-08-23T07:38:14.058Z,43.30
2022-08-23T07:39:16.308Z,42.40
2022-08-23T07:40:20.191Z,41.20
2022-08-23T07:41:16.386Z,41.50
2022-08-23T07:42:23.766Z,41.10
2022-08-23T07:43:18.653Z,40.60
2022-08-23T07:44:13.678Z,41.00
2022-08-23T07:45:16.049Z,40.70
2022-08-23T07:46:17.066Z,40.30
2022-08-23T07:47:18.351Z,40.60
2022-08-23T07:48:20.451Z,40.70
2022-08-23T07:49:19.287Z,40.80
2022-08-23T07:50:14.765Z,41.10
2022-08-23T07:51:16.791Z,40.60
2022-08-23T07:52:19.782Z,41.30
2022-08-23T07:53:13.591Z,40.50
2022-08-23T07:54:14.482Z,41.00
2022-08-23T07:55:16.541Z,40.00
2022-08-23T07:56:17.743Z,40.00
2022-08-23T07:57:14.504Z,39.90
2022-08-23T07:58:15.811Z,40.40
2022-08-23T07:59:15.220Z,40.90
2022-08-23T08:00:17.441Z,41.10
2022-08-23T08:01:15.465Z,40.90
2022-08-23T08:02:15.699Z,41.80
2022-08-23T08:03:16.895Z,41.80
2022-08-23T08:04:13.227Z,40.80
2022-08-23T08:05:21.469Z,40.80
2022-08-23T08:06:15.617Z,40.70
2022-08-23T08:07:20.394Z,40.90
2022-08-23T08:08:16.723Z,40.60
2022-08-23T08:09:19.401Z,40.80
2022-08-23T08:10:16.503Z,40.70
2022-08-23T08:11:17.930Z,41.00
2022-08-23T08:12:17.728Z,41.00
2022-08-23T08:13:17.955Z,41.40
2022-08-23T08:14:16.239Z,40.60
2022-08-23T08:15:16.030Z,41.00
2022-08-23T08:16:13.180Z,40.30
2022-08-23T08:17:13.584Z,40.40
2022-08-23T08:18:16.601Z,40.10
2022-08-23T08:19:19.271Z,39.70
2022-08-23T08:20:14.980Z,39.90
2022-08-23T08:21:14.782Z,39.90
2022-08-23T08:22:15.446Z,40.00
2022-08-23T08:23:16.528Z,40.20
2022-08-23T08:24:18.070Z,40.00
2022-08-23T08:25:18.588Z,39.90
2022-08-23T08:26:15.811Z,39.50
2022-08-23T08:27:18.132Z,40.30
2022-08-23T08:28:17.850Z,39.60
2022-08-23T08:29:17.843Z,39.70
2022-08-23T08:30:15.322Z,39.70
2022-08-23T08:31:14.956Z,39.50
2022-08-23T08:32:14.329Z,38.80
2022-08-23T08:33:18.314Z,38.80
2022-08-23T08:34:18.507Z,39.20
2022-08-23T08:35:16.585Z,39.40
2022-08-23T08:36:17.530Z,39.30
2022-08-23T08:37:18.512Z,38.70
2022-08-23T08:38:15.106Z,38.80
2022-08-23T08:39:15.069Z,38.40
2022-08-23T08:40:15.014Z,38.50
2022-08-23T08:41:14.102Z,38.60
2022-08-23T08:42:17.945Z,39.00
2022-08-23T08:43:15.103Z,38.20
2022-08-23T08:44:17.053Z,38.50
2022-08-23T08:45:16.155Z,38.20
2022-08-23T08:46:15.869Z,38.30
2022-08-23T08:47:18.372Z,38.40
2022-08-23T08:48:16.482Z,39.10
2022-08-23T08:49:19.092Z,38.10
2022-08-23T08:50:18.572Z,38.70
2022-08-23T08:51:16.699Z,38.60
2022-08-23T08:52:15.500Z,38.10
2022-08-23T08:53:21.358Z,39.00
2022-08-23T08:54:18.706Z,38.30
2022-08-23T08:55:16.540Z,38.10
2022-08-23T08:56:17.621Z,37.90
2022-08-23T08:57:16.776Z,38.00
2022-08-23T08:58:13.876Z,38.00
2022-08-23T08:59:16.062Z,37.70
2022-08-23T09:00:16.554Z,37.40
2022-08-23T09:01:15.238Z,37.90
2022-08-23T09:02:31.958Z,37.90
2022-08-23T09:03:16.319Z,37.80
2022-08-23T09:04:16.411Z,37.20
2022-08-23T09:05:17.217Z,36.90
2022-08-23T09:06:14.267Z,35.80
2022-08-23T09:07:19.578Z,37.30
2022-08-23T09:08:18.791Z,36.10
2022-08-23T09:09:19.380Z,35.90
2022-08-23T09:10:21.114Z,36.90
2022-08-23T09:11:14.790Z,37.00
2022-08-23T09:12:20.205Z,36.20
2022-08-23T09:13:17.779Z,36.20
2022-08-23T09:14:17.523Z,36.40
2022-08-23T09:15:15.869Z,36.10
2022-08-23T09:16:16.011Z,36.40
2022-08-23T09:17:17.114Z,36.10
2022-08-23T09:18:18.261Z,35.50
2022-08-23T09:19:17.797Z,35.20
2022-08-23T09:20:18.522Z,35.40
2022-08-23T09:21:18.167Z,35.30
2022-08-23T09:22:17.855Z,34.90
2022-08-23T09:23:17.236Z,34.40
2022-08-23T09:24:17.685Z,33.10
2022-08-23T09:25:16.968Z,32.60
2022-08-23T09:26:18.849Z,31.10
2022-08-23T09:27:15.950Z,30.30
2022-08-23T09:28:17.699Z,29.40
2022-08-23T09:29:17.502Z,29.70
2022-08-23T09:30:19.683Z,29.00
2022-08-23T09:31:20.460Z,29.90
2022-08-23T09:32:17.846Z,28.30
2022-08-23T09:33:18.395Z,28.20
2022-08-23T09:34:17.968Z,28.70
2022-08-23T09:35:17.641Z,29.00
2022-08-23T09:36:18.301Z,28.90
2022-08-23T09:37:19.042Z,28.40
2022-08-23T09:38:18.306Z,29.00
2022-08-23T09:39:16.634Z,28.80
2022-08-23T09:40:18.572Z,28.30
2022-08-23T09:41:20.015Z,28.80
2022-08-23T09:42:17.377Z,28.40
2022-08-23T09:43:16.549Z,27.70
2022-08-23T09:44:18.164Z,28.70
2022-08-23T09:45:18.214Z,27.60
2022-08-23T09:46:18.651Z,28.50
2022-08-23T09:47:20.166Z,27.70
2022-08-23T09:48:16.801Z,27.80
2022-08-23T09:49:19.053Z,28.30
2022-08-23T09:50:16.590Z,27.90
2022-08-23T09:51:19.920Z,28.00
2022-08-23T09:52:22.281Z,28.20
2022-08-23T09:53:18.300Z,27.80
2022-08-23T09:54:18.655Z,26.90
2022-08-23T09:55:19.063Z,27.00
2022-08-23T09:56:19.148Z,26.60
2022-08-23T09:57:14.293Z,26.40
2022-08-23T09:58:17.213Z,27.00
2022-08-23T09:59:17.307Z,26.70
2022-08-23T10:00:17.700Z,26.70
2022-08-23T10:01:19.215Z,28.10
2022-08-23T10:02:17.195Z,27.90
2022-08-23T10:03:17.175Z,28.60
2022-08-23T10:04:19.123Z,27.30
2022-08-23T10:05:17.847Z,27.90
2022-08-23T10:06:19.773Z,27.90
2022-08-23T10:07:18.968Z,27.80
2022-08-23T10:08:18.979Z,28.20
2022-08-23T10:09:18.291Z,28.70
2022-08-23T10:10:17.379Z,28.10
2022-08-23T10:11:16.537Z,28.20
2022-08-23T10:12:17.031Z,29.60
2022-08-23T10:13:20.775Z,29.20
2022-08-23T10:14:19.906Z,28.10
2022-08-23T10:15:19.477Z,28.10
2022-08-23T10:16:19.405Z,28.50
2022-08-23T10:17:18.143Z,27.70
2022-08-23T10:18:19.082Z,26.80
2022-08-23T10:19:19.183Z,27.00
2022-08-23T10:20:19.166Z,26.00
2022-08-23T10:21:20.969Z,26.70
2022-08-23T10:22:18.609Z,26.80
2022-08-23T10:23:18.230Z,24.60
2022-08-23T10:24:20.213Z,24.80
2022-08-23T10:25:19.278Z,24.60
2022-08-23T10:26:18.065Z,24.30
2022-08-23T10:27:16.519Z,23.50
2022-08-23T10:28:18.801Z,24.70
2022-08-23T10:29:18.671Z,27.00
2022-08-23T10:30:18.202Z,27.10
2022-08-23T10:31:17.885Z,25.70
2022-08-23T10:32:19.573Z,26.90
2022-08-23T10:33:18.827Z,27.20
2022-08-23T10:34:15.933Z,27.60
2022-08-23T10:35:20.539Z,27.10
2022-08-23T10:36:19.494Z,27.20
2022-08-23T10:37:19.794Z,27.10
2022-08-23T10:38:18.494Z,27.20
2022-08-23T10:39:20.846Z,27.70
2022-08-23T10:40:16.456Z,28.00
2022-08-23T10:41:18.286Z,27.80
2022-08-23T10:42:16.650Z,26.70
2022-08-23T10:43:18.716Z,27.20
2022-08-23T10:44:18.288Z,26.40
2022-08-23T10:45:17.823Z,25.70
2022-08-23T10:46:16.885Z,26.30
2022-08-23T10:47:19.048Z,26.80
2022-08-23T10:48:21.476Z,26.80
2022-08-23T10:49:18.788Z,26.80
2022-08-23T10:50:19.651Z,25.30
2022-08-23T10:51:23.060Z,24.80
2022-08-23T10:52:16.658Z,25.10
2022-08-23T10:53:22.640Z,25.80
2022-08-23T10:54:19.254Z,26.40
2022-08-23T10:55:19.826Z,26.00
2022-08-23T10:56:16.719Z,25.70
2022-08-23T10:57:18.966Z,25.50
2022-08-23T10:58:17.732Z,25.10
2022-08-23T10:59:19.680Z,25.00
2022-08-23T11:00:19.077Z,26.80
2022-08-23T11:01:18.204Z,25.60
2022-08-23T11:02:19.249Z,25.10
2022-08-23T11:03:18.992Z,25.00
2022-08-23T11:04:19.027Z,24.30
2022-08-23T11:05:20.567Z,24.30
2022-08-23T11:06:17.849Z,22.80
2022-08-23T11:07:18.596Z,23.90
2022-08-23T11:08:19.427Z,22.80
2022-08-23T11:09:18.012Z,23.30
2022-08-23T11:10:18.910Z,23.90
2022-08-23T11:11:20.191Z,24.20
2022-08-23T11:12:19.456Z,25.10
2022-08-23T11:13:19.281Z,24.90
2022-08-23T11:14:22.506Z,24.40
2022-08-23T11:15:19.466Z,25.50
2022-08-23T11:16:19.685Z,24.40
2022-08-23T11:17:20.314Z,24.50
2022-08-23T11:18:21.289Z,24.30
2022-08-23T11:19:18.037Z,24.20
2022-08-23T11:20:20.253Z,23.70
2022-08-23T11:21:18.769Z,23.40
2022-08-23T11:22:18.849Z,23.70
2022-08-23T11:23:18.645Z,23.40
2022-08-23T11:24:21.339Z,22.30
2022-08-23T11:25:20.109Z,22.00
2022-08-23T11:26:19.964Z,22.70
2022-08-23T11:27:19.969Z,22.50
2022-08-23T11:28:19.371Z,23.10
2022-08-23T11:29:21.824Z,23.90
2022-08-23T11:30:21.205Z,23.20
2022-08-23T11:31:21.082Z,23.50
2022-08-23T11:32:20.240Z,23.40
2022-08-23T11:33:19.122Z,22.60
2022-08-23T11:34:20.821Z,22.00
2022-08-23T11:35:20.679Z,22.60
2022-08-23T11:36:19.947Z,21.40
2022-08-23T11:37:20.504Z,20.90
2022-08-23T11:38:22.643Z,20.50
2022-08-23T11:39:25.335Z,21.60
2022-08-23T11:40:21.564Z,21.80
2022-08-23T11:41:19.593Z,23.10
2022-08-23T11:42:22.177Z,22.00
2022-08-23T11:43:18.893Z,23.10
2022-08-23T11:44:19.250Z,22.60
2022-08-23T11:45:21.633Z,22.40
2022-08-23T11:46:19.946Z,21.30
2022-08-23T11:47:21.391Z,21.00
2022-08-23T11:48:19.357Z,20.40
2022-08-23T11:49:19.935Z,21.00
2022-08-23T11:50:20.524Z,21.20
2022-08-23T11:51:20.342Z,21.10
2022-08-23T11:52:20.891Z,21.60
2022-08-23T11:53:20.571Z,22.30
2022-08-23T11:54:21.641Z,21.80
2022-08-23T11:55:20.891Z,21.90
2022-08-23T11:56:26.693Z,22.60
2022-08-23T11:57:24.911Z,22.30
2022-08-23T11:58:20.940Z,22.80
2022-08-23T11:59:20.405Z,22.40
2022-08-23T12:00:20.994Z,21.90
2022-08-23T12:01:20.534Z,21.40
2022-08-23T12:02:20.816Z,21.60
2022-08-23T12:03:21.621Z,22.30
2022-08-23T12:04:21.496Z,22.80
2022-08-23T12:05:20.988Z,23.00
2022-08-23T12:06:21.576Z,22.90
2022-08-23T12:07:20.434Z,21.90
2022-08-23T12:08:21.495Z,21.60
2022-08-23T12:09:21.016Z,22.20
2022-08-23T12:10:20.586Z,23.30
2022-08-23T12:11:20.492Z,22.70
2022-08-23T12:12:19.087Z,22.20
2022-08-23T12:13:14.602Z,21.10
2022-08-23T12:14:13.643Z,21.60
2022-08-23T12:15:13.823Z,20.70
2022-08-23T12:16:16.189Z,21.40
2022-08-23T12:17:13.361Z,21.60
2022-08-23T12:18:13.191Z,22.30
2022-08-23T12:19:13.784Z,21.00
2022-08-23T12:20:16.258Z,21.70
2022-08-23T12:21:13.419Z,21.60
2022-08-23T12:22:13.775Z,22.90
2022-08-23T12:23:14.107Z,23.00
2022-08-23T12:24:18.320Z,23.60
2022-08-23T12:25:13.208Z,22.70
2022-08-23T12:26:18.651Z,24.00
2022-08-23T12:27:13.817Z,24.60
2022-08-23T12:28:13.947Z,24.40
2022-08-23T12:29:12.756Z,23.90
2022-08-23T12:30:13.636Z,23.80
2022-08-23T12:31:14.136Z,23.60
2022-08-23T12:32:13.539Z,23.40
2022-08-23T12:33:13.807Z,22.70
2022-08-23T12:34:13.813Z,22.70
2022-08-23T12:35:13.690Z,22.00
2022-08-23T12:36:16.368Z,21.80
2022-08-23T12:37:13.820Z,22.70
2022-08-23T12:38:14.306Z,22.50
2022-08-23T12:39:13.110Z,22.30
2022-08-23T12:40:13.051Z,23.30
2022-08-23T12:41:13.246Z,22.90
2022-08-23T12:42:13.612Z,23.10
2022-08-23T12:43:17.393Z,22.60
2022-08-23T12:44:13.861Z,23.60
2022-08-23T12:45:13.972Z,22.70
2022-08-23T12:46:13.030Z,22.80
2022-08-23T12:47:13.055Z,22.40
2022-08-23T12:48:13.323Z,20.80
2022-08-23T12:49:13.564Z,20.80
2022-08-23T12:50:12.987Z,20.00
2022-08-23T12:51:14.213Z,20.00
2022-08-23T12:52:13.549Z,19.00